Pagina principale
METAR-TAF:

METAR-TAF

Aeroporti :

Bad Vöslau, Austria

latitudine: 47-57-52N, longitudine: 016-15-34E, altezza: 233 m

Osservazione

Il bollettino è stato emesso 26 minuti fa, alle 13:00 UTC
Vento 12 kt da sud-est con raffiche fino a 23 kt
Temperature 4°C
Umidità 44%
Pressione
Visibilità 10 km o più
nessuna nube inferiore a 1500 m e nessun cumulonembo

METAR: LOAV 091300Z 14012G23KT CAVOK 04/M07

Ora: 14:26 (13:26 UTC)

Previsione

Il bollettino è stato emesso 2 ore e 1 minuti fa, alle 11:25 UTC
Previsione valida dal 09 alle 12 UTC al 09 alle 21 UTC
Vento 12 kt da sud/sud-est
Visibilità 10 km o più
nessuna nube inferiore a 1500 m e nessun cumulonembo
Temporaneamente
dal 09 alle 12 UTC al 09 alle 15 UTC
Vento 15 kt da sud/sud-est con raffiche fino a 25 kt
Evoluzione graduale
dal 09 alle 18 UTC al 09 alle 20 UTC
Vento 4 kt da direzioni variabili

TAF: LOAV 091125Z 0912/0921 15012KT CAVOK TEMPO 0912/0915 16015G25KT BECMG 0918/0920 VRB04KT

Osservazioni e previsioni meteorologiche di più di 4000 aeroporti (messaggi METAR e TAF).

Le stazioni disponibili sono rappresentate dai dischi gialli e rossi sulla carta.

Puntare il mouse per vedere il nome della stazione.

Clicca sopra per visualizzare le osservazioni e previsioni meteorologiche.

Per cambiare la mappa : fare clic sui pulsanti verdi con una croce nera per ingrandire, il pulsante verde con un trattino per diminuire, o sulla freccia verde per le mappe adiacenti.


METAR-TAF: